sensor_id;sensor_type;location;lat;lon;timestamp;P1;durP1;ratioP1;P2;durP2;ratioP2
82005;SDS011;71529;47.484;19.064;2023-12-14T00:02:13;6.25;;;5.28;;
82005;SDS011;71529;47.484;19.064;2023-12-14T00:04:41;6.95;;;5.07;;
82005;SDS011;71529;47.484;19.064;2023-12-14T00:07:11;7.20;;;5.78;;
82005;SDS011;71529;47.484;19.064;2023-12-14T00:09:41;7.35;;;5.55;;
82005;SDS011;71529;47.484;19.064;2023-12-14T00:12:09;6.55;;;5.57;;
82005;SDS011;71529;47.484;19.064;2023-12-14T00:14:38;5.82;;;5.22;;
82005;SDS011;71529;47.484;19.064;2023-12-14T00:17:06;6.47;;;5.32;;
82005;SDS011;71529;47.484;19.064;2023-12-14T00:19:34;7.50;;;5.60;;
82005;SDS011;71529;47.484;19.064;2023-12-14T00:22:03;6.07;;;5.20;;
82005;SDS011;71529;47.484;19.064;2023-12-14T00:24:32;7.65;;;5.60;;
82005;SDS011;71529;47.484;19.064;2023-12-14T00:27:00;6.35;;;5.38;;
82005;SDS011;71529;47.484;19.064;2023-12-14T00:29:29;5.68;;;5.15;;
82005;SDS011;71529;47.484;19.064;2023-12-14T00:31:57;8.23;;;6.65;;
82005;SDS011;71529;47.484;19.064;2023-12-14T00:34:26;8.88;;;6.60;;
82005;SDS011;71529;47.484;19.064;2023-12-14T00:36:54;6.80;;;5.82;;
82005;SDS011;71529;47.484;19.064;2023-12-14T00:39:22;7.53;;;5.88;;
82005;SDS011;71529;47.484;19.064;2023-12-14T00:41:52;6.07;;;5.30;;
82005;SDS011;71529;47.484;19.064;2023-12-14T00:44:20;7.38;;;5.88;;
82005;SDS011;71529;47.484;19.064;2023-12-14T00:46:48;7.03;;;6.32;;
82005;SDS011;71529;47.484;19.064;2023-12-14T00:49:16;6.10;;;5.30;;
82005;SDS011;71529;47.484;19.064;2023-12-14T00:51:46;5.38;;;4.80;;
82005;SDS011;71529;47.484;19.064;2023-12-14T00:54:14;6.72;;;5.43;;
82005;SDS011;71529;47.484;19.064;2023-12-14T00:56:42;8.35;;;5.43;;
82005;SDS011;71529;47.484;19.064;2023-12-14T00:59:12;6.07;;;4.97;;
82005;SDS011;71529;47.484;19.064;2023-12-14T01:01:40;4.90;;;4.40;;
82005;SDS011;71529;47.484;19.064;2023-12-14T01:04:09;4.55;;;4.15;;
82005;SDS011;71529;47.484;19.064;2023-12-14T01:06:37;4.60;;;3.90;;
82005;SDS011;71529;47.484;19.064;2023-12-14T01:09:05;4.63;;;4.18;;
82005;SDS011;71529;47.484;19.064;2023-12-14T01:11:35;4.80;;;4.30;;
82005;SDS011;71529;47.484;19.064;2023-12-14T01:14:03;4.93;;;4.40;;
82005;SDS011;71529;47.484;19.064;2023-12-14T01:16:32;5.10;;;4.60;;
82005;SDS011;71529;47.484;19.064;2023-12-14T01:19:00;4.10;;;3.70;;
82005;SDS011;71529;47.484;19.064;2023-12-14T01:21:29;4.10;;;3.55;;
82005;SDS011;71529;47.484;19.064;2023-12-14T01:23:57;5.63;;;3.90;;
82005;SDS011;71529;47.484;19.064;2023-12-14T01:26:27;7.30;;;3.88;;
82005;SDS011;71529;47.484;19.064;2023-12-14T01:28:55;5.53;;;4.35;;
82005;SDS011;71529;47.484;19.064;2023-12-14T01:31:25;5.78;;;4.57;;
82005;SDS011;71529;47.484;19.064;2023-12-14T01:33:55;5.07;;;4.57;;
82005;SDS011;71529;47.484;19.064;2023-12-14T01:36:24;5.25;;;4.55;;
82005;SDS011;71529;47.484;19.064;2023-12-14T01:38:54;6.10;;;4.75;;
82005;SDS011;71529;47.484;19.064;2023-12-14T01:41:23;7.78;;;4.65;;
82005;SDS011;71529;47.484;19.064;2023-12-14T01:43:51;5.35;;;4.43;;
82005;SDS011;71529;47.484;19.064;2023-12-14T01:46:20;6.20;;;4.53;;
82005;SDS011;71529;47.484;19.064;2023-12-14T01:48:48;5.28;;;4.78;;
82005;SDS011;71529;47.484;19.064;2023-12-14T01:51:19;6.32;;;4.40;;
82005;SDS011;71529;47.484;19.064;2023-12-14T01:53:48;5.05;;;4.45;;
82005;SDS011;71529;47.484;19.064;2023-12-14T01:56:16;6.55;;;4.80;;
82005;SDS011;71529;47.484;19.064;2023-12-14T01:58:44;5.00;;;4.40;;
82005;SDS011;71529;47.484;19.064;2023-12-14T02:01:14;6.65;;;4.40;;
82005;SDS011;71529;47.484;19.064;2023-12-14T02:03:48;5.20;;;4.35;;
82005;SDS011;71529;47.484;19.064;2023-12-14T02:06:21;5.28;;;4.55;;
82005;SDS011;71529;47.484;19.064;2023-12-14T02:08:49;4.40;;;4.00;;
82005;SDS011;71529;47.484;19.064;2023-12-14T02:11:17;6.38;;;4.63;;
82005;SDS011;71529;47.484;19.064;2023-12-14T02:13:46;6.68;;;5.00;;
82005;SDS011;71529;47.484;19.064;2023-12-14T02:16:14;5.60;;;5.05;;
82005;SDS011;71529;47.484;19.064;2023-12-14T02:18:42;5.18;;;4.38;;
82005;SDS011;71529;47.484;19.064;2023-12-14T02:21:11;5.68;;;4.88;;
82005;SDS011;71529;47.484;19.064;2023-12-14T02:23:43;6.43;;;4.97;;
82005;SDS011;71529;47.484;19.064;2023-12-14T02:26:12;5.25;;;4.68;;
82005;SDS011;71529;47.484;19.064;2023-12-14T02:28:41;6.18;;;5.10;;
82005;SDS011;71529;47.484;19.064;2023-12-14T02:31:09;7.30;;;5.95;;
82005;SDS011;71529;47.484;19.064;2023-12-14T02:33:37;8.20;;;5.80;;
82005;SDS011;71529;47.484;19.064;2023-12-14T02:36:06;6.43;;;5.03;;
82005;SDS011;71529;47.484;19.064;2023-12-14T02:38:35;8.43;;;5.93;;
82005;SDS011;71529;47.484;19.064;2023-12-14T02:41:05;6.05;;;5.10;;
82005;SDS011;71529;47.484;19.064;2023-12-14T02:43:33;7.80;;;5.07;;
82005;SDS011;71529;47.484;19.064;2023-12-14T02:46:01;7.35;;;5.65;;
82005;SDS011;71529;47.484;19.064;2023-12-14T02:48:30;7.20;;;6.05;;
82005;SDS011;71529;47.484;19.064;2023-12-14T02:50:58;9.95;;;6.10;;
82005;SDS011;71529;47.484;19.064;2023-12-14T02:53:27;9.35;;;6.78;;
82005;SDS011;71529;47.484;19.064;2023-12-14T02:55:55;8.85;;;7.03;;
82005;SDS011;71529;47.484;19.064;2023-12-14T02:58:25;7.53;;;5.95;;
82005;SDS011;71529;47.484;19.064;2023-12-14T03:00:53;9.43;;;6.55;;
82005;SDS011;71529;47.484;19.064;2023-12-14T03:03:22;8.38;;;6.65;;
82005;SDS011;71529;47.484;19.064;2023-12-14T03:05:50;7.68;;;6.22;;
82005;SDS011;71529;47.484;19.064;2023-12-14T03:08:18;10.23;;;6.90;;
82005;SDS011;71529;47.484;19.064;2023-12-14T03:10:47;7.82;;;6.35;;
82005;SDS011;71529;47.484;19.064;2023-12-14T03:13:15;8.32;;;6.25;;
82005;SDS011;71529;47.484;19.064;2023-12-14T03:15:44;8.82;;;7.07;;
82005;SDS011;71529;47.484;19.064;2023-12-14T03:18:16;8.93;;;7.03;;
82005;SDS011;71529;47.484;19.064;2023-12-14T03:20:44;9.98;;;6.68;;
82005;SDS011;71529;47.484;19.064;2023-12-14T03:23:12;8.05;;;6.72;;
82005;SDS011;71529;47.484;19.064;2023-12-14T03:25:40;9.13;;;7.57;;
82005;SDS011;71529;47.484;19.064;2023-12-14T03:28:09;8.05;;;6.47;;
82005;SDS011;71529;47.484;19.064;2023-12-14T03:30:37;9.55;;;6.95;;
82005;SDS011;71529;47.484;19.064;2023-12-14T03:33:07;8.38;;;6.72;;
82005;SDS011;71529;47.484;19.064;2023-12-14T03:35:35;9.95;;;7.20;;
82005;SDS011;71529;47.484;19.064;2023-12-14T03:38:03;9.52;;;7.20;;
82005;SDS011;71529;47.484;19.064;2023-12-14T03:40:32;10.68;;;7.70;;
82005;SDS011;71529;47.484;19.064;2023-12-14T03:43:00;9.55;;;7.32;;
82005;SDS011;71529;47.484;19.064;2023-12-14T03:47:58;10.30;;;8.00;;
82005;SDS011;71529;47.484;19.064;2023-12-14T03:50:28;10.60;;;7.40;;
82005;SDS011;71529;47.484;19.064;2023-12-14T03:52:56;9.10;;;7.28;;
82005;SDS011;71529;47.484;19.064;2023-12-14T03:55:25;9.13;;;6.95;;
82005;SDS011;71529;47.484;19.064;2023-12-14T03:57:53;8.60;;;7.38;;
82005;SDS011;71529;47.484;19.064;2023-12-14T04:00:21;8.98;;;7.30;;
82005;SDS011;71529;47.484;19.064;2023-12-14T04:02:50;9.45;;;7.53;;
82005;SDS011;71529;47.484;19.064;2023-12-14T04:05:18;9.50;;;7.60;;
82005;SDS011;71529;47.484;19.064;2023-12-14T04:07:48;9.57;;;7.40;;
82005;SDS011;71529;47.484;19.064;2023-12-14T04:10:16;8.88;;;7.43;;
82005;SDS011;71529;47.484;19.064;2023-12-14T04:12:45;10.55;;;8.18;;
82005;SDS011;71529;47.484;19.064;2023-12-14T04:15:13;9.63;;;8.13;;
82005;SDS011;71529;47.484;19.064;2023-12-14T04:17:41;10.27;;;7.63;;
82005;SDS011;71529;47.484;19.064;2023-12-14T04:20:10;11.18;;;8.13;;
82005;SDS011;71529;47.484;19.064;2023-12-14T04:22:42;10.13;;;8.38;;
82005;SDS011;71529;47.484;19.064;2023-12-14T04:25:12;11.70;;;8.35;;
82005;SDS011;71529;47.484;19.064;2023-12-14T04:27:41;10.68;;;8.60;;
82005;SDS011;71529;47.484;19.064;2023-12-14T04:30:09;9.25;;;7.85;;
82005;SDS011;71529;47.484;19.064;2023-12-14T04:32:38;10.30;;;8.07;;
82005;SDS011;71529;47.484;19.064;2023-12-14T04:35:07;10.23;;;8.05;;
82005;SDS011;71529;47.484;19.064;2023-12-14T04:37:36;10.65;;;8.25;;
82005;SDS011;71529;47.484;19.064;2023-12-14T04:40:05;24.92;;;16.30;;
82005;SDS011;71529;47.484;19.064;2023-12-14T04:42:36;13.35;;;10.23;;
82005;SDS011;71529;47.484;19.064;2023-12-14T04:45:05;11.32;;;8.13;;
82005;SDS011;71529;47.484;19.064;2023-12-14T04:47:35;14.52;;;9.32;;
82005;SDS011;71529;47.484;19.064;2023-12-14T04:50:04;11.38;;;8.60;;
82005;SDS011;71529;47.484;19.064;2023-12-14T04:52:33;12.35;;;8.75;;
82005;SDS011;71529;47.484;19.064;2023-12-14T04:55:02;12.52;;;8.85;;
82005;SDS011;71529;47.484;19.064;2023-12-14T04:57:30;12.68;;;8.88;;
82005;SDS011;71529;47.484;19.064;2023-12-14T05:00:00;12.43;;;8.73;;
82005;SDS011;71529;47.484;19.064;2023-12-14T05:02:30;12.70;;;8.85;;
82005;SDS011;71529;47.484;19.064;2023-12-14T05:05:00;10.65;;;8.45;;
82005;SDS011;71529;47.484;19.064;2023-12-14T05:07:29;11.05;;;8.43;;
82005;SDS011;71529;47.484;19.064;2023-12-14T05:09:58;10.55;;;8.07;;
82005;SDS011;71529;47.484;19.064;2023-12-14T05:12:26;11.98;;;8.93;;
82005;SDS011;71529;47.484;19.064;2023-12-14T05:14:55;11.48;;;8.23;;
82005;SDS011;71529;47.484;19.064;2023-12-14T05:17:25;11.52;;;8.45;;
82005;SDS011;71529;47.484;19.064;2023-12-14T05:19:53;11.80;;;8.10;;
82005;SDS011;71529;47.484;19.064;2023-12-14T05:22:21;11.80;;;8.30;;
82005;SDS011;71529;47.484;19.064;2023-12-14T05:24:50;12.15;;;8.80;;
82005;SDS011;71529;47.484;19.064;2023-12-14T05:27:19;12.80;;;8.75;;
82005;SDS011;71529;47.484;19.064;2023-12-14T05:29:47;12.77;;;9.43;;
82005;SDS011;71529;47.484;19.064;2023-12-14T05:32:15;13.25;;;9.25;;
82005;SDS011;71529;47.484;19.064;2023-12-14T05:34:46;10.55;;;7.97;;
82005;SDS011;71529;47.484;19.064;2023-12-14T05:37:14;12.43;;;9.57;;
82005;SDS011;71529;47.484;19.064;2023-12-14T05:39:42;13.18;;;9.95;;
82005;SDS011;71529;47.484;19.064;2023-12-14T05:42:12;12.10;;;9.55;;
82005;SDS011;71529;47.484;19.064;2023-12-14T05:44:43;12.05;;;8.57;;
82005;SDS011;71529;47.484;19.064;2023-12-14T05:47:12;12.32;;;9.00;;
82005;SDS011;71529;47.484;19.064;2023-12-14T05:49:41;14.63;;;9.40;;
82005;SDS011;71529;47.484;19.064;2023-12-14T05:52:11;16.98;;;10.68;;
82005;SDS011;71529;47.484;19.064;2023-12-14T05:54:39;15.85;;;10.60;;
82005;SDS011;71529;47.484;19.064;2023-12-14T05:57:08;13.18;;;9.98;;
82005;SDS011;71529;47.484;19.064;2023-12-14T05:59:40;14.82;;;10.85;;
82005;SDS011;71529;47.484;19.064;2023-12-14T06:02:08;13.20;;;10.10;;
82005;SDS011;71529;47.484;19.064;2023-12-14T06:04:38;15.40;;;11.25;;
82005;SDS011;71529;47.484;19.064;2023-12-14T06:07:11;15.95;;;11.07;;
82005;SDS011;71529;47.484;19.064;2023-12-14T06:09:42;14.45;;;10.20;;
82005;SDS011;71529;47.484;19.064;2023-12-14T06:12:10;18.02;;;10.73;;
82005;SDS011;71529;47.484;19.064;2023-12-14T06:14:38;13.02;;;10.23;;
82005;SDS011;71529;47.484;19.064;2023-12-14T06:17:06;14.15;;;10.35;;
82005;SDS011;71529;47.484;19.064;2023-12-14T06:19:34;14.48;;;10.48;;
82005;SDS011;71529;47.484;19.064;2023-12-14T06:22:03;14.45;;;10.88;;
82005;SDS011;71529;47.484;19.064;2023-12-14T06:24:32;15.10;;;10.70;;
82005;SDS011;71529;47.484;19.064;2023-12-14T06:27:01;15.00;;;10.93;;
82005;SDS011;71529;47.484;19.064;2023-12-14T06:29:30;15.15;;;10.65;;
82005;SDS011;71529;47.484;19.064;2023-12-14T06:31:59;14.60;;;10.80;;
82005;SDS011;71529;47.484;19.064;2023-12-14T06:34:27;16.00;;;10.68;;
82005;SDS011;71529;47.484;19.064;2023-12-14T06:36:55;17.48;;;11.82;;
82005;SDS011;71529;47.484;19.064;2023-12-14T06:39:25;17.73;;;11.73;;
82005;SDS011;71529;47.484;19.064;2023-12-14T06:41:55;17.17;;;12.02;;
82005;SDS011;71529;47.484;19.064;2023-12-14T06:44:23;16.48;;;10.77;;
82005;SDS011;71529;47.484;19.064;2023-12-14T06:46:53;15.00;;;11.10;;
82005;SDS011;71529;47.484;19.064;2023-12-14T06:49:21;16.52;;;11.68;;
82005;SDS011;71529;47.484;19.064;2023-12-14T06:51:50;15.30;;;11.68;;
82005;SDS011;71529;47.484;19.064;2023-12-14T06:54:18;16.90;;;11.85;;
82005;SDS011;71529;47.484;19.064;2023-12-14T06:56:46;16.63;;;11.55;;
82005;SDS011;71529;47.484;19.064;2023-12-14T06:59:15;19.40;;;11.80;;
82005;SDS011;71529;47.484;19.064;2023-12-14T07:01:44;18.25;;;13.07;;
82005;SDS011;71529;47.484;19.064;2023-12-14T07:04:12;16.13;;;11.63;;
82005;SDS011;71529;47.484;19.064;2023-12-14T07:06:43;16.73;;;11.23;;
82005;SDS011;71529;47.484;19.064;2023-12-14T07:09:18;16.60;;;11.77;;
82005;SDS011;71529;47.484;19.064;2023-12-14T07:11:46;17.88;;;12.70;;
82005;SDS011;71529;47.484;19.064;2023-12-14T07:14:16;16.95;;;11.93;;
82005;SDS011;71529;47.484;19.064;2023-12-14T07:16:45;16.02;;;12.25;;
82005;SDS011;71529;47.484;19.064;2023-12-14T07:19:13;18.48;;;12.05;;
82005;SDS011;71529;47.484;19.064;2023-12-14T07:21:41;17.60;;;12.05;;
82005;SDS011;71529;47.484;19.064;2023-12-14T07:24:08;16.20;;;12.15;;
82005;SDS011;71529;47.484;19.064;2023-12-14T07:26:36;18.60;;;12.68;;
82005;SDS011;71529;47.484;19.064;2023-12-14T07:29:04;14.70;;;10.90;;
82005;SDS011;71529;47.484;19.064;2023-12-14T07:31:34;16.70;;;12.48;;
82005;SDS011;71529;47.484;19.064;2023-12-14T07:34:02;16.55;;;12.07;;
82005;SDS011;71529;47.484;19.064;2023-12-14T07:36:31;20.40;;;12.88;;
82005;SDS011;71529;47.484;19.064;2023-12-14T07:38:59;20.33;;;14.30;;
82005;SDS011;71529;47.484;19.064;2023-12-14T07:41:28;20.85;;;14.25;;
82005;SDS011;71529;47.484;19.064;2023-12-14T07:43:58;21.42;;;13.63;;
82005;SDS011;71529;47.484;19.064;2023-12-14T07:46:31;20.33;;;12.80;;
82005;SDS011;71529;47.484;19.064;2023-12-14T07:49:03;17.27;;;12.35;;
82005;SDS011;71529;47.484;19.064;2023-12-14T07:51:31;17.17;;;12.73;;
82005;SDS011;71529;47.484;19.064;2023-12-14T07:53:59;16.98;;;12.05;;
82005;SDS011;71529;47.484;19.064;2023-12-14T07:56:30;15.52;;;11.57;;
82005;SDS011;71529;47.484;19.064;2023-12-14T07:58:59;15.40;;;12.30;;
82005;SDS011;71529;47.484;19.064;2023-12-14T08:01:27;16.70;;;11.57;;
82005;SDS011;71529;47.484;19.064;2023-12-14T08:03:56;16.60;;;12.45;;
82005;SDS011;71529;47.484;19.064;2023-12-14T08:06:25;16.77;;;11.70;;
82005;SDS011;71529;47.484;19.064;2023-12-14T08:08:54;17.63;;;11.68;;
82005;SDS011;71529;47.484;19.064;2023-12-14T08:11:24;16.05;;;11.48;;
82005;SDS011;71529;47.484;19.064;2023-12-14T08:13:53;17.35;;;11.88;;
82005;SDS011;71529;47.484;19.064;2023-12-14T08:16:21;17.88;;;11.95;;
82005;SDS011;71529;47.484;19.064;2023-12-14T08:18:49;18.38;;;12.43;;
82005;SDS011;71529;47.484;19.064;2023-12-14T08:21:18;14.77;;;11.13;;
82005;SDS011;71529;47.484;19.064;2023-12-14T08:23:47;15.13;;;10.73;;
82005;SDS011;71529;47.484;19.064;2023-12-14T08:26:15;16.45;;;11.25;;
82005;SDS011;71529;47.484;19.064;2023-12-14T08:28:44;15.38;;;11.15;;
82005;SDS011;71529;47.484;19.064;2023-12-14T08:31:12;17.23;;;11.77;;
82005;SDS011;71529;47.484;19.064;2023-12-14T08:33:41;15.30;;;11.25;;
82005;SDS011;71529;47.484;19.064;2023-12-14T08:36:15;17.02;;;10.32;;
82005;SDS011;71529;47.484;19.064;2023-12-14T08:38:43;19.40;;;14.40;;
82005;SDS011;71529;47.484;19.064;2023-12-14T08:41:13;17.23;;;11.88;;
82005;SDS011;71529;47.484;19.064;2023-12-14T08:43:43;18.95;;;12.23;;
82005;SDS011;71529;47.484;19.064;2023-12-14T08:46:11;17.13;;;12.05;;
82005;SDS011;71529;47.484;19.064;2023-12-14T08:48:40;16.98;;;11.20;;
82005;SDS011;71529;47.484;19.064;2023-12-14T08:51:08;12.30;;;9.85;;
82005;SDS011;71529;47.484;19.064;2023-12-14T08:53:36;15.35;;;11.00;;
82005;SDS011;71529;47.484;19.064;2023-12-14T08:56:05;14.60;;;10.95;;
82005;SDS011;71529;47.484;19.064;2023-12-14T08:58:37;14.95;;;11.73;;
82005;SDS011;71529;47.484;19.064;2023-12-14T09:01:05;15.73;;;10.93;;
82005;SDS011;71529;47.484;19.064;2023-12-14T09:03:34;14.60;;;11.43;;
82005;SDS011;71529;47.484;19.064;2023-12-14T09:06:02;15.40;;;10.75;;
82005;SDS011;71529;47.484;19.064;2023-12-14T09:08:32;17.02;;;11.65;;
82005;SDS011;71529;47.484;19.064;2023-12-14T09:11:00;16.60;;;11.40;;
82005;SDS011;71529;47.484;19.064;2023-12-14T09:13:29;18.10;;;11.93;;
82005;SDS011;71529;47.484;19.064;2023-12-14T09:15:58;18.15;;;12.18;;
82005;SDS011;71529;47.484;19.064;2023-12-14T09:18:26;18.75;;;13.02;;
82005;SDS011;71529;47.484;19.064;2023-12-14T09:20:55;14.30;;;11.23;;
82005;SDS011;71529;47.484;19.064;2023-12-14T09:23:23;15.10;;;11.48;;
82005;SDS011;71529;47.484;19.064;2023-12-14T09:25:51;14.02;;;10.95;;
82005;SDS011;71529;47.484;19.064;2023-12-14T09:28:19;17.73;;;12.27;;
82005;SDS011;71529;47.484;19.064;2023-12-14T09:30:47;16.50;;;11.95;;
82005;SDS011;71529;47.484;19.064;2023-12-14T09:33:17;19.27;;;12.50;;
82005;SDS011;71529;47.484;19.064;2023-12-14T09:35:46;18.77;;;12.02;;
82005;SDS011;71529;47.484;19.064;2023-12-14T09:38:14;16.65;;;11.10;;
82005;SDS011;71529;47.484;19.064;2023-12-14T09:40:44;17.25;;;11.90;;
82005;SDS011;71529;47.484;19.064;2023-12-14T09:43:13;16.55;;;10.32;;
82005;SDS011;71529;47.484;19.064;2023-12-14T09:45:41;15.15;;;11.25;;
82005;SDS011;71529;47.484;19.064;2023-12-14T09:48:12;15.85;;;11.40;;
82005;SDS011;71529;47.484;19.064;2023-12-14T09:50:44;13.02;;;9.93;;
82005;SDS011;71529;47.484;19.064;2023-12-14T09:53:14;13.05;;;10.05;;
82005;SDS011;71529;47.484;19.064;2023-12-14T09:55:42;14.77;;;10.38;;
82005;SDS011;71529;47.484;19.064;2023-12-14T09:58:11;13.82;;;10.13;;
82005;SDS011;71529;47.484;19.064;2023-12-14T10:00:40;14.18;;;10.20;;
82005;SDS011;71529;47.484;19.064;2023-12-14T10:03:19;12.73;;;10.00;;
82005;SDS011;71529;47.484;19.064;2023-12-14T10:05:50;15.18;;;9.43;;
82005;SDS011;71529;47.484;19.064;2023-12-14T10:08:20;12.77;;;9.73;;
82005;SDS011;71529;47.484;19.064;2023-12-14T10:10:49;15.02;;;9.95;;
82005;SDS011;71529;47.484;19.064;2023-12-14T10:13:20;13.85;;;9.93;;
82005;SDS011;71529;47.484;19.064;2023-12-14T10:15:50;13.68;;;9.18;;
82005;SDS011;71529;47.484;19.064;2023-12-14T10:18:21;12.63;;;8.98;;
82005;SDS011;71529;47.484;19.064;2023-12-14T10:20:52;13.88;;;9.75;;
82005;SDS011;71529;47.484;19.064;2023-12-14T10:23:21;14.52;;;8.93;;
82005;SDS011;71529;47.484;19.064;2023-12-14T10:25:49;14.73;;;9.45;;
82005;SDS011;71529;47.484;19.064;2023-12-14T10:28:17;13.23;;;9.32;;
82005;SDS011;71529;47.484;19.064;2023-12-14T10:30:45;11.20;;;9.18;;
82005;SDS011;71529;47.484;19.064;2023-12-14T10:33:14;14.35;;;10.15;;
82005;SDS011;71529;47.484;19.064;2023-12-14T10:35:43;14.57;;;8.93;;
82005;SDS011;71529;47.484;19.064;2023-12-14T10:38:15;13.63;;;9.43;;
82005;SDS011;71529;47.484;19.064;2023-12-14T10:40:45;15.43;;;9.00;;
82005;SDS011;71529;47.484;19.064;2023-12-14T10:43:14;14.20;;;9.32;;
82005;SDS011;71529;47.484;19.064;2023-12-14T10:46:04;12.20;;;8.68;;
82005;SDS011;71529;47.484;19.064;2023-12-14T10:48:35;15.40;;;8.80;;
82005;SDS011;71529;47.484;19.064;2023-12-14T10:51:04;12.00;;;9.15;;
82005;SDS011;71529;47.484;19.064;2023-12-14T10:53:34;14.95;;;9.65;;
82005;SDS011;71529;47.484;19.064;2023-12-14T10:56:04;14.77;;;9.27;;
82005;SDS011;71529;47.484;19.064;2023-12-14T10:58:46;14.63;;;9.90;;
82005;SDS011;71529;47.484;19.064;2023-12-14T11:01:16;13.73;;;9.32;;
82005;SDS011;71529;47.484;19.064;2023-12-14T11:03:47;12.27;;;8.07;;
82005;SDS011;71529;47.484;19.064;2023-12-14T11:09:06;13.05;;;9.27;;
82005;SDS011;71529;47.484;19.064;2023-12-14T11:11:40;12.20;;;8.80;;
82005;SDS011;71529;47.484;19.064;2023-12-14T11:14:10;12.43;;;9.25;;
82005;SDS011;71529;47.484;19.064;2023-12-14T11:16:40;13.32;;;9.68;;
82005;SDS011;71529;47.484;19.064;2023-12-14T11:19:23;13.33;;;9.00;;
82005;SDS011;71529;47.484;19.064;2023-12-14T11:22:09;13.52;;;9.88;;
82005;SDS011;71529;47.484;19.064;2023-12-14T11:24:46;15.38;;;10.20;;
82005;SDS011;71529;47.484;19.064;2023-12-14T11:27:26;16.17;;;9.77;;
82005;SDS011;71529;47.484;19.064;2023-12-14T11:29:56;14.52;;;10.40;;
82005;SDS011;71529;47.484;19.064;2023-12-14T11:32:26;15.90;;;10.80;;
82005;SDS011;71529;47.484;19.064;2023-12-14T11:34:55;15.43;;;10.73;;
82005;SDS011;71529;47.484;19.064;2023-12-14T11:37:23;17.33;;;10.90;;
82005;SDS011;71529;47.484;19.064;2023-12-14T11:39:53;14.43;;;10.60;;
82005;SDS011;71529;47.484;19.064;2023-12-14T11:42:22;15.00;;;10.63;;
82005;SDS011;71529;47.484;19.064;2023-12-14T11:44:50;15.98;;;10.73;;
82005;SDS011;71529;47.484;19.064;2023-12-14T11:47:18;15.15;;;10.55;;
82005;SDS011;71529;47.484;19.064;2023-12-14T11:49:46;14.23;;;10.70;;
82005;SDS011;71529;47.484;19.064;2023-12-14T11:52:16;15.55;;;10.25;;
82005;SDS011;71529;47.484;19.064;2023-12-14T11:54:45;14.35;;;10.52;;
82005;SDS011;71529;47.484;19.064;2023-12-14T11:57:15;15.15;;;11.35;;
82005;SDS011;71529;47.484;19.064;2023-12-14T11:59:44;19.40;;;12.15;;
82005;SDS011;71529;47.484;19.064;2023-12-14T12:02:13;18.42;;;12.27;;
82005;SDS011;71529;47.484;19.064;2023-12-14T12:04:51;15.18;;;10.48;;
82005;SDS011;71529;47.484;19.064;2023-12-14T12:07:20;13.27;;;10.23;;
82005;SDS011;71529;47.484;19.064;2023-12-14T12:09:49;14.32;;;9.82;;
82005;SDS011;71529;47.484;19.064;2023-12-14T12:12:18;15.35;;;10.45;;
82005;SDS011;71529;47.484;19.064;2023-12-14T12:14:47;16.10;;;10.05;;
82005;SDS011;71529;47.484;19.064;2023-12-14T12:17:16;14.43;;;10.60;;
82005;SDS011;71529;47.484;19.064;2023-12-14T12:19:46;12.90;;;10.05;;
82005;SDS011;71529;47.484;19.064;2023-12-14T12:22:14;21.17;;;10.60;;
82005;SDS011;71529;47.484;19.064;2023-12-14T12:24:43;17.38;;;12.35;;
82005;SDS011;71529;47.484;19.064;2023-12-14T12:27:12;17.85;;;12.50;;
82005;SDS011;71529;47.484;19.064;2023-12-14T12:29:42;20.52;;;12.50;;
82005;SDS011;71529;47.484;19.064;2023-12-14T12:32:10;17.90;;;11.65;;
82005;SDS011;71529;47.484;19.064;2023-12-14T12:34:38;16.25;;;10.80;;
82005;SDS011;71529;47.484;19.064;2023-12-14T12:37:07;17.20;;;11.23;;
82005;SDS011;71529;47.484;19.064;2023-12-14T12:39:35;16.05;;;11.18;;
82005;SDS011;71529;47.484;19.064;2023-12-14T12:42:03;16.85;;;11.05;;
82005;SDS011;71529;47.484;19.064;2023-12-14T12:44:32;16.88;;;10.98;;
82005;SDS011;71529;47.484;19.064;2023-12-14T12:47:03;16.05;;;10.15;;
82005;SDS011;71529;47.484;19.064;2023-12-14T12:49:37;13.43;;;9.95;;
82005;SDS011;71529;47.484;19.064;2023-12-14T12:52:05;18.30;;;11.32;;
82005;SDS011;71529;47.484;19.064;2023-12-14T12:54:34;13.48;;;10.63;;
82005;SDS011;71529;47.484;19.064;2023-12-14T12:57:02;13.38;;;9.57;;
82005;SDS011;71529;47.484;19.064;2023-12-14T12:59:30;15.70;;;11.38;;
82005;SDS011;71529;47.484;19.064;2023-12-14T13:02:00;14.63;;;11.43;;
82005;SDS011;71529;47.484;19.064;2023-12-14T13:04:30;13.10;;;10.35;;
82005;SDS011;71529;47.484;19.064;2023-12-14T13:06:59;15.65;;;10.35;;
82005;SDS011;71529;47.484;19.064;2023-12-14T13:09:31;16.20;;;11.15;;
82005;SDS011;71529;47.484;19.064;2023-12-14T13:11:59;19.73;;;11.13;;
82005;SDS011;71529;47.484;19.064;2023-12-14T13:14:27;16.80;;;10.68;;
82005;SDS011;71529;47.484;19.064;2023-12-14T13:16:55;18.10;;;10.85;;
82005;SDS011;71529;47.484;19.064;2023-12-14T13:19:25;15.25;;;10.18;;
82005;SDS011;71529;47.484;19.064;2023-12-14T13:21:57;18.10;;;10.55;;
82005;SDS011;71529;47.484;19.064;2023-12-14T13:24:26;19.23;;;11.30;;
82005;SDS011;71529;47.484;19.064;2023-12-14T13:26:54;15.30;;;10.85;;
82005;SDS011;71529;47.484;19.064;2023-12-14T13:29:23;16.17;;;11.77;;
82005;SDS011;71529;47.484;19.064;2023-12-14T13:31:51;15.18;;;10.30;;
82005;SDS011;71529;47.484;19.064;2023-12-14T13:34:19;16.85;;;11.90;;
82005;SDS011;71529;47.484;19.064;2023-12-14T13:36:47;14.65;;;10.73;;
82005;SDS011;71529;47.484;19.064;2023-12-14T13:39:16;16.33;;;10.57;;
82005;SDS011;71529;47.484;19.064;2023-12-14T13:41:46;15.45;;;10.77;;
82005;SDS011;71529;47.484;19.064;2023-12-14T13:44:16;14.88;;;10.85;;
82005;SDS011;71529;47.484;19.064;2023-12-14T13:46:45;13.70;;;10.25;;
82005;SDS011;71529;47.484;19.064;2023-12-14T13:49:13;14.02;;;10.32;;
82005;SDS011;71529;47.484;19.064;2023-12-14T13:51:42;13.70;;;10.50;;
82005;SDS011;71529;47.484;19.064;2023-12-14T13:54:10;11.98;;;9.57;;
82005;SDS011;71529;47.484;19.064;2023-12-14T13:56:40;16.83;;;10.57;;
82005;SDS011;71529;47.484;19.064;2023-12-14T13:59:09;14.45;;;9.93;;
82005;SDS011;71529;47.484;19.064;2023-12-14T14:01:37;13.63;;;10.13;;
82005;SDS011;71529;47.484;19.064;2023-12-14T14:04:05;11.32;;;8.85;;
82005;SDS011;71529;47.484;19.064;2023-12-14T14:06:34;18.13;;;9.35;;
82005;SDS011;71529;47.484;19.064;2023-12-14T14:09:02;15.98;;;10.85;;
82005;SDS011;71529;47.484;19.064;2023-12-14T14:11:31;12.05;;;9.48;;
82005;SDS011;71529;47.484;19.064;2023-12-14T14:14:03;13.70;;;10.05;;
82005;SDS011;71529;47.484;19.064;2023-12-14T14:16:31;18.10;;;10.35;;
82005;SDS011;71529;47.484;19.064;2023-12-14T14:18:59;15.48;;;8.98;;
82005;SDS011;71529;47.484;19.064;2023-12-14T14:21:27;12.30;;;9.50;;
82005;SDS011;71529;47.484;19.064;2023-12-14T14:23:55;13.48;;;9.40;;
82005;SDS011;71529;47.484;19.064;2023-12-14T14:26:23;18.05;;;11.93;;
82005;SDS011;71529;47.484;19.064;2023-12-14T14:28:52;18.45;;;11.30;;
82005;SDS011;71529;47.484;19.064;2023-12-14T14:31:22;17.45;;;10.63;;
82005;SDS011;71529;47.484;19.064;2023-12-14T14:33:51;15.05;;;9.98;;
82005;SDS011;71529;47.484;19.064;2023-12-14T14:36:19;12.43;;;9.05;;